Brisbane, Australia
Current Conditions -  °F | °C
As of 12:00 AM on Thursday 23 Oct 2014 (Local Time) from YBBN Reporting Station
Few Clouds Few Clouds  
Wind Chill: 66°   Ceiling: Unl
Heat Index: 66°   Visibility: 6mi
Dew Point: 54°   Wind: 6mph
Humidity: 64%   Direction: 80°E
Pressure: 30.18"   Gusts: NA
Location:  27.47°S, 153.03°E
Report Text: YBBN 221400Z 08005KT 9999 FEW026 19/12 Q1022 NOSIG
Loading
Personal Weather Stations






























Interactive Weather Map
Tropical Storm Tracking
New forecast layout! Learn more

10-Day Weather Forecast

Advertisements
Track Severe Weather on mobile